Terminal Aerodrome Forecast
Issued by NWS

Current Version | Previous Version | Text Only | Print | Product List | Glossary Off
Versions: 1 2 3 4 5 6 7 8 9 10 11 12 13 14 15 16 17 18 19

000
FTUS41 KILN 291100
TAFLCK
TAF
KLCK 291135Z 2912/3012 35004KT P6SM SCT025 BKN040
      TEMPO 2912/2915 BKN025
     FM291500 29008KT P6SM BKN040
     FM300100 24004KT P6SM SCT050=

USA.gov is the U.S. government's official web portal to all federal, state and local government web resources and services.